Time;durP1;ratioP1;P1;durP2;ratioP2;P2;SDS_P1;SDS_P2;PMS_P1;PMS_P2;Temp;Humidity;BMP_temperature;BMP_pressure;BME280_temperature;BME280_humidity;BME280_pressure;Samples;Min_cycle;Max_cycle;Signal;HPM_P1;HPM_P2
2024/03/24 00:00:24;;;;;;;14.23;2.28;;;5.80;99.90;;;;;;4994834;28;20522;-91
2024/03/24 00:02:49;;;;;;;17.75;3.03;;;5.80;99.90;;;;;;4998723;28;20022;-90
2024/03/24 00:05:15;;;;;;;16.15;2.00;;;5.80;99.90;;;;;;4995862;28;20058;-92
2024/03/24 00:07:41;;;;;;;14.80;2.40;;;5.80;99.90;;;;;;5004445;28;20022;-92
2024/03/24 00:10:10;;;;;;;9.05;1.88;;;5.80;99.90;;;;;;4994956;28;20030;-89
2024/03/24 00:12:36;;;;;;;13.38;2.50;;;5.80;99.90;;;;;;5006429;28;20129;-91
2024/03/24 00:15:01;;;;;;;14.63;1.88;;;5.80;99.90;;;;;;4995790;28;20061;-90
2024/03/24 00:17:30;;;;;;;11.50;2.33;;;5.80;99.90;;;;;;4989688;28;20093;-91
2024/03/24 00:19:55;;;;;;;14.68;3.33;;;5.70;99.90;;;;;;4996655;28;20029;-92
2024/03/24 00:22:24;;;;;;;10.00;2.67;;;5.70;99.90;;;;;;4992484;28;20125;-91
2024/03/24 00:24:49;;;;;;;9.70;1.95;;;5.80;99.90;;;;;;4992141;28;20137;-92
2024/03/24 00:27:16;;;;;;;12.13;2.33;;;5.80;99.90;;;;;;4997057;28;20022;-90
2024/03/24 00:29:41;;;;;;;20.63;2.90;;;5.80;99.90;;;;;;4987052;28;20022;-90
2024/03/24 00:32:07;;;;;;;13.90;2.35;;;5.80;99.90;;;;;;4994640;28;20045;-91
2024/03/24 00:34:33;;;;;;;20.02;2.38;;;5.80;99.90;;;;;;4995412;28;20539;-91
2024/03/24 00:36:59;;;;;;;20.30;3.15;;;5.70;99.90;;;;;;4994220;28;20023;-90
2024/03/24 00:39:24;;;;;;;18.92;2.85;;;5.70;99.90;;;;;;4995971;28;20026;-90
2024/03/24 00:41:50;;;;;;;19.52;3.08;;;5.70;99.90;;;;;;4996880;28;20121;-90
2024/03/24 00:44:15;;;;;;;13.38;2.90;;;5.70;99.90;;;;;;4996578;28;20078;-90
2024/03/24 00:46:41;;;;;;;12.75;2.25;;;5.70;99.90;;;;;;5008443;28;20068;-89
2024/03/24 00:49:07;;;;;;;11.38;2.60;;;5.70;99.90;;;;;;4994187;28;20480;-89
2024/03/24 00:51:33;;;;;;;16.73;2.58;;;5.70;99.90;;;;;;4994151;28;20109;-89
2024/03/24 00:53:59;;;;;;;19.15;3.22;;;5.70;99.90;;;;;;4993439;28;20037;-89
2024/03/24 00:56:25;;;;;;;14.05;2.75;;;5.60;99.90;;;;;;4993680;28;20026;-89
2024/03/24 00:58:51;;;;;;;17.98;2.40;;;5.60;99.90;;;;;;4994068;28;20034;-90
2024/03/24 01:01:16;;;;;;;18.23;2.50;;;5.60;99.90;;;;;;4994847;28;20041;-90
2024/03/24 01:03:42;;;;;;;20.75;3.40;;;5.60;99.90;;;;;;4993339;28;20015;-90
2024/03/24 01:06:08;;;;;;;16.58;2.10;;;5.60;99.90;;;;;;4993341;28;20431;-89
2024/03/24 01:08:34;;;;;;;18.52;2.92;;;5.60;99.90;;;;;;4993692;28;20084;-90
2024/03/24 01:11:04;;;;;;;18.80;2.70;;;5.50;99.90;;;;;;4993273;28;20719;-91
2024/03/24 01:13:30;;;;;;;20.08;2.88;;;5.50;99.90;;;;;;4993609;28;20076;-89
2024/03/24 01:15:55;;;;;;;19.88;2.17;;;5.50;99.90;;;;;;4994164;28;20018;-89
2024/03/24 01:18:21;;;;;;;9.52;2.20;;;5.50;99.90;;;;;;4993238;28;20096;-90
2024/03/24 01:20:47;;;;;;;16.45;2.35;;;5.50;99.90;;;;;;4991878;28;20030;-90
2024/03/24 01:23:13;;;;;;;13.90;2.65;;;5.50;99.90;;;;;;4992293;28;20039;-89
2024/03/24 01:25:38;;;;;;;25.13;4.35;;;5.50;99.90;;;;;;4993619;28;20030;-90
2024/03/24 01:28:04;;;;;;;8.65;2.50;;;5.40;99.90;;;;;;4992985;28;20068;-91
2024/03/24 01:30:30;;;;;;;16.60;2.60;;;5.50;99.90;;;;;;4993600;28;20041;-90
2024/03/24 01:32:55;;;;;;;21.48;3.17;;;5.50;99.90;;;;;;4993264;28;20037;-90
2024/03/24 01:35:21;;;;;;;7.72;2.15;;;5.50;99.90;;;;;;4994114;28;20069;-89
2024/03/24 01:37:47;;;;;;;12.15;1.83;;;5.50;99.90;;;;;;4993346;28;20033;-90
2024/03/24 01:40:12;;;;;;;13.45;2.40;;;5.50;99.90;;;;;;4992684;28;20040;-89
2024/03/24 01:42:38;;;;;;;18.77;3.00;;;5.50;99.90;;;;;;4993090;28;20117;-90
2024/03/24 01:45:04;;;;;;;14.10;2.70;;;5.50;99.90;;;;;;4993214;28;20113;-90
2024/03/24 01:47:33;;;;;;;24.67;3.38;;;5.50;99.90;;;;;;4992741;28;20057;-91
2024/03/24 01:49:58;;;;;;;25.02;2.72;;;5.60;99.90;;;;;;4994367;28;20034;-89
2024/03/24 01:52:24;;;;;;;18.55;3.55;;;5.60;99.90;;;;;;4993189;28;20092;-89
2024/03/24 01:54:50;;;;;;;12.95;2.60;;;5.50;99.90;;;;;;4997764;28;20031;-89
2024/03/24 01:57:16;;;;;;;18.20;4.10;;;5.60;99.90;;;;;;4997861;28;20401;-90
2024/03/24 01:59:42;;;;;;;18.38;2.60;;;5.60;99.90;;;;;;4993692;28;20038;-89
2024/03/24 02:02:07;;;;;;;25.75;2.88;;;5.60;99.90;;;;;;4993536;28;20122;-91
2024/03/24 02:04:33;;;;;;;21.23;3.53;;;5.60;99.90;;;;;;4992705;28;20061;-89
2024/03/24 02:06:59;;;;;;;7.60;1.88;;;5.50;99.90;;;;;;4992105;28;20085;-89
2024/03/24 02:09:24;;;;;;;25.85;5.00;;;5.50;99.90;;;;;;4992726;28;20027;-89
2024/03/24 02:11:51;;;;;;;13.18;3.05;;;5.50;99.90;;;;;;4993087;28;20046;-89
2024/03/24 02:14:16;;;;;;;20.80;2.88;;;5.50;99.90;;;;;;4992914;28;20026;-89
2024/03/24 02:16:42;;;;;;;19.70;3.83;;;5.50;99.90;;;;;;4993570;28;20018;-89
2024/03/24 02:19:08;;;;;;;20.15;4.25;;;5.50;99.90;;;;;;4992930;28;20080;-91
2024/03/24 02:21:34;;;;;;;17.40;3.30;;;5.50;99.90;;;;;;4993779;28;20089;-89
2024/03/24 02:24:00;;;;;;;21.42;3.50;;;5.40;99.90;;;;;;4992828;28;20033;-89
2024/03/24 02:26:25;;;;;;;16.08;3.63;;;5.40;99.90;;;;;;4992337;28;20027;-89
2024/03/24 02:28:54;;;;;;;11.77;2.33;;;5.40;99.90;;;;;;4992195;28;20026;-89
2024/03/24 02:31:20;;;;;;;22.90;3.17;;;5.40;99.90;;;;;;4993989;28;20022;-89
2024/03/24 02:33:46;;;;;;;12.82;2.92;;;5.40;99.90;;;;;;4998004;28;20396;-91
2024/03/24 02:36:11;;;;;;;15.40;2.45;;;5.40;99.90;;;;;;4996124;28;20102;-90
2024/03/24 02:38:37;;;;;;;17.20;3.08;;;5.40;99.90;;;;;;4996160;28;20472;-89
2024/03/24 02:41:03;;;;;;;16.95;3.13;;;5.40;99.90;;;;;;4996449;28;20074;-89
2024/03/24 02:43:28;;;;;;;17.40;2.38;;;5.40;99.90;;;;;;4996199;28;20491;-89
2024/03/24 02:45:57;;;;;;;17.13;2.83;;;5.30;99.90;;;;;;4996257;28;20081;-88
2024/03/24 02:48:23;;;;;;;15.65;3.47;;;5.30;99.90;;;;;;4996159;28;20060;-92
2024/03/24 02:50:50;;;;;;;26.05;3.45;;;5.30;99.90;;;;;;4995573;28;20063;-89
2024/03/24 02:53:17;;;;;;;16.45;3.75;;;5.30;99.90;;;;;;4995160;28;20030;-90
2024/03/24 02:55:49;;;;;;;15.00;2.25;;;5.30;99.90;;;;;;4999413;28;20030;-91
2024/03/24 02:58:15;;;;;;;13.52;2.03;;;5.30;99.90;;;;;;5009709;28;20034;-91
2024/03/24 03:00:42;;;;;;;22.10;3.08;;;5.30;99.90;;;;;;5011239;28;20047;-91
2024/03/24 03:03:08;;;;;;;11.45;3.60;;;5.30;99.90;;;;;;5004579;28;20027;-90
2024/03/24 03:05:34;;;;;;;20.15;2.97;;;5.30;99.90;;;;;;5003323;28;20049;-92
2024/03/24 03:08:02;;;;;;;20.30;3.05;;;5.30;99.90;;;;;;5001725;28;20192;-88
2024/03/24 03:10:31;;;;;;;14.13;3.53;;;5.30;99.90;;;;;;5003197;28;20022;-88
2024/03/24 03:13:00;;;;;;;22.55;2.70;;;5.20;99.90;;;;;;4998691;28;20028;-89
2024/03/24 03:15:26;;;;;;;13.73;3.25;;;5.20;99.90;;;;;;4999184;28;20491;-90
2024/03/24 03:17:52;;;;;;;14.05;2.70;;;5.20;99.90;;;;;;4998736;28;20021;-90
2024/03/24 03:20:18;;;;;;;14.02;2.60;;;5.20;99.90;;;;;;5005534;28;20537;-91
2024/03/24 03:22:44;;;;;;;16.85;3.80;;;5.20;99.90;;;;;;5007265;28;20467;-91
2024/03/24 03:25:10;;;;;;;17.63;2.55;;;5.20;99.90;;;;;;5007050;28;20034;-91
2024/03/24 03:27:35;;;;;;;20.55;2.83;;;5.20;99.90;;;;;;5001311;28;20045;-91
2024/03/24 03:30:03;;;;;;;22.48;2.75;;;5.20;99.90;;;;;;5005608;28;20026;-90
2024/03/24 03:32:28;;;;;;;23.50;3.13;;;5.10;99.90;;;;;;5006351;28;20022;-90
2024/03/24 03:34:55;;;;;;;13.02;3.08;;;5.10;99.90;;;;;;5007332;28;20025;-91
2024/03/24 03:37:21;;;;;;;14.95;2.17;;;5.10;99.90;;;;;;5006325;28;20025;-90
2024/03/24 03:39:47;;;;;;;19.77;3.47;;;5.10;99.90;;;;;;5006155;28;20065;-90
2024/03/24 03:42:16;;;;;;;10.30;2.45;;;5.10;99.90;;;;;;5004887;28;20037;-90
2024/03/24 03:44:43;;;;;;;9.82;2.20;;;5.10;99.90;;;;;;5006471;28;20022;-90
2024/03/24 03:47:09;;;;;;;15.52;2.88;;;5.20;99.90;;;;;;5004692;28;20121;-89
2024/03/24 03:49:35;;;;;;;14.98;3.60;;;5.20;99.90;;;;;;5006143;28;20068;-90
2024/03/24 03:52:01;;;;;;;17.23;3.13;;;5.20;99.90;;;;;;4999438;28;20026;-89
2024/03/24 03:54:27;;;;;;;20.08;3.47;;;5.20;99.90;;;;;;4999961;28;20030;-91
2024/03/24 03:56:53;;;;;;;17.13;3.20;;;5.20;99.90;;;;;;5000784;28;20029;-89
2024/03/24 03:59:19;;;;;;;12.60;2.10;;;5.20;99.90;;;;;;5001082;28;20022;-90
2024/03/24 04:01:45;;;;;;;20.17;3.50;;;5.30;99.90;;;;;;5000498;28;20092;-91
2024/03/24 04:04:10;;;;;;;11.40;2.13;;;5.30;99.90;;;;;;5000492;28;20037;-91
2024/03/24 04:06:36;;;;;;;12.07;2.25;;;5.20;99.90;;;;;;5000114;28;20498;-90
2024/03/24 04:09:02;;;;;;;10.20;2.33;;;5.30;99.90;;;;;;5000091;28;20116;-89
2024/03/24 04:11:29;;;;;;;16.60;2.47;;;5.30;99.90;;;;;;5001744;28;20053;-88
2024/03/24 04:13:54;;;;;;;13.82;1.67;;;5.20;99.90;;;;;;5003914;28;20026;-89
2024/03/24 04:16:21;;;;;;;12.57;2.20;;;5.20;99.90;;;;;;5002614;28;20033;-91
2024/03/24 04:18:49;;;;;;;5.68;2.10;;;5.20;99.90;;;;;;5002955;28;20045;-90
2024/03/24 04:21:16;;;;;;;9.60;2.35;;;5.20;99.90;;;;;;5000021;28;20088;-90
2024/03/24 04:23:42;;;;;;;8.07;1.42;;;5.20;99.90;;;;;;5000030;28;20026;-90
2024/03/24 04:26:08;;;;;;;19.27;3.17;;;5.20;99.90;;;;;;5016754;28;20136;-91
2024/03/24 04:28:34;;;;;;;12.98;1.95;;;5.20;99.90;;;;;;5000356;28;20022;-90
2024/03/24 04:31:00;;;;;;;5.88;1.35;;;5.20;99.90;;;;;;4999577;28;20026;-90
2024/03/24 04:33:26;;;;;;;8.60;3.00;;;5.20;99.90;;;;;;5000379;28;20116;-90
2024/03/24 04:35:52;;;;;;;14.65;2.13;;;5.20;99.90;;;;;;5001458;28;20045;-90
2024/03/24 04:38:18;;;;;;;19.45;2.50;;;5.20;99.90;;;;;;5000121;28;20463;-90
2024/03/24 04:40:44;;;;;;;19.13;3.00;;;5.20;99.90;;;;;;4998928;28;20104;-90
2024/03/24 04:43:13;;;;;;;18.75;2.92;;;5.20;99.90;;;;;;4998535;28;20022;-91
2024/03/24 04:45:39;;;;;;;11.07;1.85;;;5.20;99.90;;;;;;4998647;28;20021;-90
2024/03/24 04:48:05;;;;;;;12.05;1.38;;;5.20;99.90;;;;;;4998961;28;20049;-89
2024/03/24 04:50:30;;;;;;;10.00;1.75;;;5.20;99.90;;;;;;4997139;28;20060;-90
2024/03/24 04:52:58;;;;;;;9.90;1.48;;;5.20;99.90;;;;;;4998258;28;20483;-91
2024/03/24 04:55:24;;;;;;;13.57;2.30;;;5.20;99.90;;;;;;4996969;28;20525;-91
2024/03/24 04:57:49;;;;;;;14.93;1.67;;;5.20;99.90;;;;;;4997223;28;20034;-89
2024/03/24 05:00:16;;;;;;;18.20;2.08;;;5.20;99.90;;;;;;4997453;28;20030;-90
2024/03/24 05:02:41;;;;;;;11.85;1.95;;;5.30;99.90;;;;;;4997713;28;20510;-89
2024/03/24 05:05:10;;;;;;;15.40;2.50;;;5.30;99.90;;;;;;4997481;28;20026;-89
2024/03/24 05:07:35;;;;;;;11.55;2.05;;;5.30;99.90;;;;;;4997273;28;20033;-90
2024/03/24 05:10:01;;;;;;;9.57;1.77;;;5.30;99.90;;;;;;4996882;28;20414;-90
2024/03/24 05:12:27;;;;;;;11.45;2.70;;;5.30;99.90;;;;;;4997444;28;20077;-90
2024/03/24 05:14:52;;;;;;;12.77;1.55;;;5.30;99.90;;;;;;4997809;28;20035;-90
2024/03/24 05:17:18;;;;;;;8.98;1.73;;;5.40;99.90;;;;;;4997481;28;20022;-88
2024/03/24 05:19:44;;;;;;;11.93;2.28;;;5.30;99.90;;;;;;4997444;28;20030;-91
2024/03/24 05:22:10;;;;;;;14.45;2.08;;;5.30;99.90;;;;;;5014355;28;20029;-90
2024/03/24 05:24:35;;;;;;;11.85;1.92;;;5.30;99.90;;;;;;4997108;28;20053;-90
2024/03/24 05:27:04;;;;;;;16.02;2.00;;;5.30;99.90;;;;;;4997585;28;20494;-89
2024/03/24 05:29:30;;;;;;;12.18;1.60;;;5.30;99.90;;;;;;4997511;28;20352;-90
2024/03/24 05:31:57;;;;;;;5.97;1.25;;;5.20;99.90;;;;;;4997329;28;20032;-90
2024/03/24 05:34:25;;;;;;;17.33;2.08;;;5.20;99.90;;;;;;4996989;28;20503;-88
2024/03/24 05:36:51;;;;;;;15.77;2.15;;;5.20;99.90;;;;;;4997291;28;20030;-89
2024/03/24 05:39:17;;;;;;;16.20;2.95;;;5.20;99.90;;;;;;4997270;28;20144;-89
2024/03/24 05:41:47;;;;;;;12.88;2.00;;;5.20;99.90;;;;;;4997501;28;20041;-89
2024/03/24 05:44:13;;;;;;;16.85;2.92;;;5.20;99.90;;;;;;4982285;28;20026;-89
2024/03/24 05:46:40;;;;;;;13.20;1.85;;;5.20;99.90;;;;;;4977667;28;20121;-89
2024/03/24 05:49:06;;;;;;;11.63;2.25;;;5.20;99.90;;;;;;4977196;28;20058;-90
2024/03/24 05:51:31;;;;;;;11.55;2.35;;;5.20;99.90;;;;;;4977392;28;20094;-90
2024/03/24 05:53:57;;;;;;;18.25;2.60;;;5.20;99.90;;;;;;4994300;28;20022;-90
2024/03/24 05:56:23;;;;;;;9.68;1.80;;;5.10;99.90;;;;;;4976614;28;20030;-89
2024/03/24 05:58:48;;;;;;;9.82;1.70;;;5.10;99.90;;;;;;4977481;28;20058;-89
2024/03/24 06:01:14;;;;;;;6.65;1.30;;;5.10;99.90;;;;;;4978209;28;20057;-89
2024/03/24 06:03:40;;;;;;;13.95;1.83;;;5.10;99.90;;;;;;4978695;28;20523;-91
2024/03/24 06:06:05;;;;;;;11.38;1.85;;;5.10;99.90;;;;;;4979008;28;20110;-91
2024/03/24 06:08:34;;;;;;;13.02;2.80;;;5.10;99.90;;;;;;4981321;28;20025;-91
2024/03/24 06:11:00;;;;;;;16.35;2.05;;;5.10;99.90;;;;;;4980582;28;20077;-89
2024/03/24 06:13:25;;;;;;;19.02;2.38;;;5.10;99.90;;;;;;4981680;28;20042;-90
2024/03/24 06:15:51;;;;;;;16.75;1.83;;;5.10;99.90;;;;;;4998731;28;20033;-90
2024/03/24 06:18:17;;;;;;;14.73;2.00;;;5.10;99.90;;;;;;4981651;28;20018;-90
2024/03/24 06:20:42;;;;;;;13.18;2.10;;;5.10;99.90;;;;;;4980471;28;20481;-88
2024/03/24 06:23:08;;;;;;;15.98;2.60;;;5.10;99.90;;;;;;4996603;28;20543;-90
2024/03/24 06:25:34;;;;;;;7.07;2.00;;;5.10;99.90;;;;;;4980671;28;20058;-90
2024/03/24 06:28:03;;;;;;;10.80;1.63;;;5.00;99.90;;;;;;4981031;28;20030;-91
2024/03/24 06:30:29;;;;;;;10.30;1.60;;;5.00;99.90;;;;;;4981121;28;20030;-91
2024/03/24 06:32:55;;;;;;;10.40;1.60;;;5.10;99.90;;;;;;4980960;28;20384;-92
2024/03/24 06:35:21;;;;;;;12.77;2.05;;;5.00;99.90;;;;;;4986490;28;20030;-91
2024/03/24 06:37:47;;;;;;;15.18;2.38;;;5.00;99.90;;;;;;4999817;28;20392;-91
2024/03/24 06:40:13;;;;;;;9.25;1.65;;;5.00;99.90;;;;;;4980938;28;20038;-91
2024/03/24 06:42:44;;;;;;;13.50;1.98;;;5.00;99.90;;;;;;4983159;28;20023;-90
2024/03/24 06:45:13;;;;;;;8.70;1.45;;;5.00;99.90;;;;;;5000760;28;20495;-89
2024/03/24 06:47:39;;;;;;;18.75;2.03;;;5.00;99.90;;;;;;5001627;28;20116;-90
2024/03/24 06:50:06;;;;;;;16.58;2.15;;;5.00;99.90;;;;;;5002109;28;20026;-90
2024/03/24 06:52:34;;;;;;;7.50;1.52;;;5.00;99.90;;;;;;5019606;28;20033;-90
2024/03/24 06:55:00;;;;;;;15.52;2.88;;;5.00;99.90;;;;;;5002544;28;20058;-92
2024/03/24 06:57:26;;;;;;;7.63;1.58;;;5.00;99.90;;;;;;5018047;28;20495;-90
2024/03/24 06:59:52;;;;;;;8.20;1.65;;;5.00;99.90;;;;;;5000227;28;20030;-89
2024/03/24 07:02:18;;;;;;;15.52;2.50;;;5.00;99.90;;;;;;4999494;28;20030;-90
2024/03/24 07:04:44;;;;;;;14.65;1.70;;;5.00;99.90;;;;;;4999739;28;20529;-90
2024/03/24 07:07:10;;;;;;;9.90;1.40;;;5.00;99.90;;;;;;4998870;28;20411;-91
2024/03/24 07:09:35;;;;;;;11.05;1.83;;;5.10;99.90;;;;;;4997880;28;20112;-90
2024/03/24 07:12:01;;;;;;;11.38;2.78;;;5.10;99.90;;;;;;4994917;28;20074;-90
2024/03/24 07:14:27;;;;;;;14.32;1.58;;;5.10;99.90;;;;;;4994854;28;20062;-90
2024/03/24 07:16:53;;;;;;;13.85;2.35;;;5.10;99.90;;;;;;4994764;28;20026;-90
2024/03/24 07:19:19;;;;;;;12.75;1.77;;;5.20;99.90;;;;;;4995730;28;20472;-90
2024/03/24 07:21:48;;;;;;;13.75;3.00;;;5.20;99.90;;;;;;4995552;28;20056;-90
2024/03/24 07:24:13;;;;;;;15.40;2.85;;;5.20;99.90;;;;;;4992717;28;20037;-88
2024/03/24 07:26:39;;;;;;;12.73;2.47;;;5.20;99.90;;;;;;4995887;28;20073;-90
2024/03/24 07:29:05;;;;;;;14.88;2.10;;;5.20;99.90;;;;;;4996886;28;20043;-90
2024/03/24 07:31:31;;;;;;;12.95;2.05;;;5.30;99.90;;;;;;4994929;28;20042;-90
2024/03/24 07:33:57;;;;;;;16.17;2.08;;;5.30;99.90;;;;;;4995264;28;20019;-89
2024/03/24 07:36:23;;;;;;;10.18;1.65;;;5.40;99.90;;;;;;4995544;28;20084;-90
2024/03/24 07:38:49;;;;;;;11.98;2.00;;;5.40;99.90;;;;;;4996401;28;20026;-90
2024/03/24 07:41:15;;;;;;;10.13;2.03;;;5.40;99.90;;;;;;4995584;28;20042;-89
2024/03/24 07:43:41;;;;;;;17.33;1.90;;;5.60;99.90;;;;;;4995616;28;20018;-89
2024/03/24 07:46:07;;;;;;;22.95;2.88;;;5.60;99.90;;;;;;4998802;28;20023;-89
2024/03/24 07:48:33;;;;;;;15.98;2.28;;;5.70;99.90;;;;;;4998817;28;20117;-89
2024/03/24 07:50:58;;;;;;;18.83;2.03;;;5.80;99.90;;;;;;5002710;28;20033;-90
2024/03/24 07:53:24;;;;;;;14.60;2.55;;;5.80;99.90;;;;;;5000354;28;20031;-89
2024/03/24 07:55:50;;;;;;;16.27;2.30;;;6.00;99.90;;;;;;4997112;28;20027;-89
2024/03/24 07:58:15;;;;;;;14.95;2.50;;;6.00;99.90;;;;;;4996351;28;20468;-90
2024/03/24 08:00:41;;;;;;;14.25;2.40;;;6.10;99.90;;;;;;4995954;28;20396;-91
2024/03/24 08:03:07;;;;;;;16.80;1.92;;;6.10;99.90;;;;;;4995709;28;20050;-90
2024/03/24 08:05:32;;;;;;;10.10;2.10;;;6.20;99.90;;;;;;4995324;28;20515;-91
2024/03/24 08:07:58;;;;;;;12.45;1.98;;;6.30;99.90;;;;;;4999248;28;20018;-89
2024/03/24 08:10:24;;;;;;;13.48;2.00;;;6.30;99.90;;;;;;4983757;28;20396;-90
2024/03/24 08:12:50;;;;;;;18.92;2.35;;;6.30;99.90;;;;;;5001810;28;20029;-89
2024/03/24 08:15:15;;;;;;;13.95;2.13;;;6.40;99.90;;;;;;5002346;28;20023;-91
2024/03/24 08:17:41;;;;;;;10.32;2.63;;;6.40;99.90;;;;;;5001966;28;20026;-91
2024/03/24 08:20:08;;;;;;;11.63;2.28;;;6.50;99.90;;;;;;5005244;28;20403;-90
2024/03/24 08:22:33;;;;;;;8.48;1.65;;;6.50;99.90;;;;;;5021189;28;20025;-91
2024/03/24 08:24:59;;;;;;;19.00;3.15;;;6.50;99.90;;;;;;5001402;28;20045;-91
2024/03/24 08:27:25;;;;;;;14.73;2.55;;;6.60;99.90;;;;;;5001212;28;20036;-90
2024/03/24 08:29:51;;;;;;;16.70;2.30;;;6.60;99.90;;;;;;4999912;28;20068;-90
2024/03/24 08:32:19;;;;;;;15.77;2.42;;;6.60;99.90;;;;;;4999687;28;20030;-90
2024/03/24 08:34:45;;;;;;;9.52;3.28;;;6.70;99.90;;;;;;4999408;28;20022;-89
2024/03/24 08:37:10;;;;;;;20.13;1.77;;;6.70;99.90;;;;;;5015506;28;20030;-89
2024/03/24 08:39:36;;;;;;;10.93;2.58;;;6.80;99.90;;;;;;4997028;28;20030;-89
2024/03/24 08:42:02;;;;;;;15.57;2.15;;;6.80;99.90;;;;;;4997768;28;20081;-89
2024/03/24 08:44:28;;;;;;;22.38;4.28;;;6.90;99.90;;;;;;4996866;28;20053;-88
2024/03/24 08:46:54;;;;;;;15.07;2.45;;;6.90;99.90;;;;;;4998790;28;20038;-90
2024/03/24 08:49:19;;;;;;;18.40;2.22;;;6.90;99.90;;;;;;5000792;28;20085;-90
2024/03/24 08:51:49;;;;;;;7.38;1.35;;;7.00;99.90;;;;;;4999070;28;20018;-90
2024/03/24 08:54:15;;;;;;;6.40;1.55;;;7.00;99.90;;;;;;4999827;28;20479;-90
2024/03/24 08:56:41;;;;;;;16.45;2.25;;;7.00;99.90;;;;;;5001828;28;20042;-90
2024/03/24 08:59:07;;;;;;;20.92;3.75;;;7.00;99.90;;;;;;5002813;28;20040;-92
2024/03/24 09:01:32;;;;;;;9.65;1.70;;;7.00;99.90;;;;;;4999649;28;20570;-89
2024/03/24 09:03:59;;;;;;;12.45;2.28;;;7.00;99.90;;;;;;4999560;28;20419;-90
2024/03/24 09:06:25;;;;;;;10.60;1.58;;;7.10;99.90;;;;;;4998922;28;20033;-90
2024/03/24 09:08:51;;;;;;;6.95;1.52;;;7.10;99.90;;;;;;5016562;28;20467;-92
2024/03/24 09:11:17;;;;;;;12.57;2.08;;;7.10;99.90;;;;;;4997999;28;20145;-90
2024/03/24 09:13:43;;;;;;;11.55;1.60;;;7.10;99.90;;;;;;5000462;28;20037;-91
2024/03/24 09:16:08;;;;;;;12.50;1.67;;;7.20;99.90;;;;;;5001249;28;20029;-90
2024/03/24 09:18:34;;;;;;;6.88;1.55;;;7.30;99.90;;;;;;5003256;28;20018;-93
2024/03/24 09:21:07;;;;;;;14.73;1.60;;;7.40;99.90;;;;;;5003916;28;20064;-90
2024/03/24 09:23:33;;;;;;;8.63;1.52;;;7.50;99.90;;;;;;5003005;28;20022;-91
2024/03/24 09:25:59;;;;;;;13.05;2.20;;;7.60;99.90;;;;;;4998821;28;20036;-90
2024/03/24 09:28:25;;;;;;;17.38;2.58;;;7.70;99.90;;;;;;5016842;28;20109;-91
2024/03/24 09:30:58;;;;;;;12.63;1.95;;;7.70;99.90;;;;;;5001371;28;20087;-89
2024/03/24 09:33:24;;;;;;;8.10;1.40;;;7.80;99.90;;;;;;4998949;28;20022;-90
2024/03/24 09:35:56;;;;;;;10.85;1.60;;;8.00;99.90;;;;;;5015172;28;20026;-90
2024/03/24 09:38:24;;;;;;;12.20;1.73;;;8.20;99.90;;;;;;4997192;28;20030;-92
2024/03/24 09:40:51;;;;;;;8.23;1.45;;;8.30;99.90;;;;;;5000680;28;20084;-91
2024/03/24 09:43:17;;;;;;;10.32;1.83;;;8.50;99.90;;;;;;4981657;28;20037;-90
2024/03/24 09:45:43;;;;;;;7.88;1.38;;;8.60;99.90;;;;;;4996930;28;20120;-91
2024/03/24 09:48:13;;;;;;;14.77;1.85;;;8.80;99.90;;;;;;5000575;28;20049;-92
2024/03/24 09:50:40;;;;;;;16.02;3.03;;;8.90;99.90;;;;;;5000892;28;20026;-89
2024/03/24 09:53:07;;;;;;;9.77;1.38;;;9.10;99.90;;;;;;4999325;28;20061;-91
2024/03/24 09:55:34;;;;;;;9.75;1.45;;;9.30;99.90;;;;;;4999805;28;20037;-90
2024/03/24 09:58:00;;;;;;;15.48;2.55;;;9.50;99.90;;;;;;4999296;28;20033;-91
2024/03/24 10:00:28;;;;;;;11.52;1.52;;;9.70;99.90;;;;;;4999467;28;20030;-90
2024/03/24 10:02:55;;;;;;;16.70;1.92;;;9.80;99.90;;;;;;5015649;28;20037;-91
2024/03/24 10:05:21;;;;;;;8.95;1.73;;;10.00;99.90;;;;;;4998195;28;20025;-91
2024/03/24 10:07:47;;;;;;;10.18;2.55;;;10.20;99.90;;;;;;5014999;28;20058;-90
2024/03/24 10:10:14;;;;;;;17.80;2.22;;;10.30;99.90;;;;;;5001602;28;20054;-90
2024/03/24 10:12:57;;;;;;;5.65;1.27;;;10.30;99.90;;;;;;4997194;28;20073;-90
2024/03/24 10:15:27;;;;;;;13.80;2.22;;;10.30;99.90;;;;;;4997120;28;20030;-90
2024/03/24 10:18:04;;;;;;;8.68;1.50;;;10.30;99.70;;;;;;4996606;28;20504;-91
2024/03/24 10:20:31;;;;;;;10.90;1.77;;;10.30;98.60;;;;;;4999219;28;20042;-91
2024/03/24 10:22:57;;;;;;;9.73;1.58;;;10.30;98.20;;;;;;4999481;28;20126;-91
2024/03/24 10:25:26;;;;;;;7.63;1.50;;;10.40;97.60;;;;;;4994454;28;20031;-91
2024/03/24 10:27:52;;;;;;;7.45;1.52;;;10.40;96.60;;;;;;4993838;28;20392;-91
2024/03/24 10:30:19;;;;;;;15.15;2.10;;;10.50;96.30;;;;;;4993489;28;20022;-90
2024/03/24 10:32:45;;;;;;;5.47;1.48;;;10.70;96.60;;;;;;4993727;28;20030;-92
2024/03/24 10:35:10;;;;;;;5.40;1.10;;;10.90;95.90;;;;;;4995620;28;20366;-90
2024/03/24 10:37:37;;;;;;;3.97;0.80;;;11.10;95.30;;;;;;4994962;28;20104;-93
2024/03/24 10:40:04;;;;;;;7.10;1.20;;;11.30;94.00;;;;;;4994219;28;20043;-91
2024/03/24 10:42:33;;;;;;;6.38;1.30;;;11.40;92.60;;;;;;4993892;28;20053;-92
2024/03/24 10:45:06;;;;;;;9.63;1.73;;;11.50;91.90;;;;;;4994217;28;20026;-90
2024/03/24 10:47:36;;;;;;;8.55;1.55;;;11.60;91.60;;;;;;4993285;28;20027;-91
2024/03/24 10:50:02;;;;;;;8.73;1.73;;;11.60;91.10;;;;;;4993677;28;20109;-90
2024/03/24 10:52:30;;;;;;;6.38;1.00;;;11.70;91.00;;;;;;4994448;28;20034;-89
2024/03/24 10:54:59;;;;;;;7.43;1.70;;;11.70;91.00;;;;;;4996921;28;20385;-91
2024/03/24 10:57:28;;;;;;;8.00;1.83;;;11.80;90.80;;;;;;4996631;28;20027;-90
2024/03/24 10:59:54;;;;;;;5.32;1.05;;;11.90;90.50;;;;;;4996619;28;20026;-92
2024/03/24 11:02:21;;;;;;;10.57;1.75;;;12.10;89.60;;;;;;4996883;28;20030;-91
2024/03/24 11:04:51;;;;;;;3.45;0.80;;;12.30;89.30;;;;;;4997353;28;20164;-91
2024/03/24 11:07:17;;;;;;;3.70;0.65;;;12.50;87.60;;;;;;4996719;28;20022;-91
2024/03/24 11:09:43;;;;;;;4.60;0.77;;;12.50;85.60;;;;;;4997612;28;20034;-92
2024/03/24 11:12:11;;;;;;;2.97;1.00;;;12.60;84.10;;;;;;5012581;28;20054;-90
2024/03/24 11:14:37;;;;;;;8.10;1.42;;;12.70;83.10;;;;;;5001278;28;20018;-91
2024/03/24 11:17:03;;;;;;;8.02;1.15;;;12.80;82.50;;;;;;5004918;28;20029;-88
2024/03/24 11:19:30;;;;;;;4.20;1.10;;;12.90;81.80;;;;;;5003528;28;20030;-89
2024/03/24 11:21:59;;;;;;;6.03;1.88;;;12.80;80.70;;;;;;5002150;28;20129;-91
2024/03/24 11:24:28;;;;;;;9.45;1.27;;;12.90;81.30;;;;;;4983348;28;20026;-91
2024/03/24 11:27:03;;;;;;;6.43;0.98;;;13.10;81.80;;;;;;4998820;28;20040;-91
2024/03/24 11:29:48;;;;;;;5.20;1.15;;;13.40;81.40;;;;;;4999127;28;20113;-88
2024/03/24 11:32:17;;;;;;;8.23;1.50;;;13.60;80.10;;;;;;5004359;28;20034;-88
2024/03/24 11:34:53;;;;;;;6.50;1.20;;;13.70;79.00;;;;;;5005356;28;20026;-90
2024/03/24 11:37:20;;;;;;;5.03;1.15;;;13.80;78.40;;;;;;5007726;28;20140;-88
2024/03/24 11:39:47;;;;;;;10.30;3.03;;;14.00;78.30;;;;;;5024612;28;20355;-88
2024/03/24 11:42:13;;;;;;;7.10;1.08;;;14.00;76.90;;;;;;5002447;28;20041;-89
2024/03/24 11:44:42;;;;;;;7.80;1.02;;;13.90;77.00;;;;;;5000229;28;20430;-89
2024/03/24 11:47:08;;;;;;;5.35;1.00;;;13.60;76.10;;;;;;4981310;28;20076;-89
2024/03/24 11:49:37;;;;;;;3.30;1.20;;;13.40;76.40;;;;;;4980416;28;20038;-89
2024/03/24 11:52:03;;;;;;;6.10;1.10;;;13.40;77.00;;;;;;4996380;28;20026;-89
2024/03/24 11:54:29;;;;;;;5.00;1.45;;;13.40;76.20;;;;;;4979601;28;20041;-89
2024/03/24 11:56:56;;;;;;;9.18;1.48;;;13.50;76.30;;;;;;4979812;28;20102;-89
2024/03/24 11:59:32;;;;;;;5.47;1.05;;;13.70;76.20;;;;;;4984106;28;20026;-89
2024/03/24 12:01:57;;;;;;;6.25;1.13;;;14.00;76.50;;;;;;4981990;28;20042;-92
2024/03/24 12:04:25;;;;;;;4.55;1.17;;;14.20;75.60;;;;;;5000955;28;20034;-90
2024/03/24 12:06:51;;;;;;;6.80;1.48;;;14.10;74.70;;;;;;4979219;28;20057;-90
2024/03/24 12:09:17;;;;;;;9.02;1.77;;;14.10;74.90;;;;;;4979367;28;20073;-91
2024/03/24 12:11:43;;;;;;;5.28;1.23;;;14.00;75.00;;;;;;4980416;28;20061;-90
2024/03/24 12:14:08;;;;;;;7.15;1.25;;;13.80;74.90;;;;;;4979671;28;20023;-91
2024/03/24 12:16:34;;;;;;;5.30;1.15;;;13.60;75.10;;;;;;4997518;28;20084;-90
2024/03/24 12:19:00;;;;;;;5.80;1.10;;;13.70;75.50;;;;;;4996380;28;20097;-90
2024/03/24 12:21:28;;;;;;;7.80;1.15;;;13.80;75.10;;;;;;4979729;28;20045;-89
2024/03/24 12:23:55;;;;;;;7.45;1.85;;;14.10;74.70;;;;;;4980141;28;20476;-90
2024/03/24 12:26:21;;;;;;;4.80;1.15;;;14.40;73.20;;;;;;4980933;28;20034;-90
2024/03/24 12:28:55;;;;;;;2.85;1.00;;;14.60;72.50;;;;;;5002530;28;20026;-90
2024/03/24 12:31:21;;;;;;;9.65;1.33;;;14.70;71.50;;;;;;5006126;28;20028;-92
2024/03/24 12:33:50;;;;;;;6.68;1.10;;;14.70;70.80;;;;;;4999798;28;20026;-91
2024/03/24 12:36:16;;;;;;;5.53;1.23;;;14.80;71.00;;;;;;4996665;28;20105;-91
2024/03/24 12:38:45;;;;;;;9.23;1.58;;;15.00;71.10;;;;;;4999422;28;20057;-88
2024/03/24 12:41:23;;;;;;;9.02;1.50;;;15.20;70.40;;;;;;4998858;28;20045;-90
2024/03/24 12:43:53;;;;;;;7.93;1.30;;;15.40;69.90;;;;;;4998838;28;20450;-90